Time;durP1;ratioP1;P1;durP2;ratioP2;P2;SDS_P1;SDS_P2;PMS_P1;PMS_P2;Temp;Humidity;BMP_temperature;BMP_pressure;BME280_temperature;BME280_humidity;BME280_pressure;Samples;Min_cycle;Max_cycle;Signal;HPM_P1;HPM_P2
2024/02/26 00:01:51;;;;;;;24.70;7.40;;;;;;;8.22;81.67;100621.69;123481;1099;104363;-76
2024/02/26 00:04:23;;;;;;;22.13;7.03;;;;;;;8.23;82.34;100614.77;123437;1099;104346;-77
2024/02/26 00:06:55;;;;;;;26.33;6.90;;;;;;;8.24;82.00;100622.68;123124;1099;104318;-75
2024/02/26 00:09:27;;;;;;;18.03;6.53;;;;;;;8.24;81.71;100617.45;123399;1099;104749;-76
2024/02/26 00:11:59;;;;;;;23.60;7.10;;;;;;;8.22;81.99;100616.46;123174;1099;104705;-76
2024/02/26 00:14:30;;;;;;;21.10;6.83;;;;;;;8.19;82.16;100618.93;123556;1099;104303;-76
2024/02/26 00:17:02;;;;;;;28.13;7.17;;;;;;;8.18;82.20;100616.24;123465;1099;104323;-76
2024/02/26 00:19:33;;;;;;;21.73;6.50;;;;;;;8.19;81.94;100610.20;123500;1099;104310;-76
2024/02/26 00:22:04;;;;;;;23.93;6.70;;;;;;;8.19;82.13;100599.75;123494;1099;104377;-76
2024/02/26 00:24:36;;;;;;;22.40;6.65;;;;;;;8.20;82.40;100610.27;123409;1099;104499;-76
2024/02/26 00:27:07;;;;;;;17.75;5.80;;;;;;;8.23;82.11;100610.42;123469;1099;104315;-76
2024/02/26 00:29:38;;;;;;;21.23;6.10;;;;;;;8.23;82.07;100599.96;123440;1099;104408;-76
2024/02/26 00:32:09;;;;;;;19.77;6.13;;;;;;;8.22;82.40;100603.39;123440;1099;104300;-76
2024/02/26 00:34:41;;;;;;;20.75;6.15;;;;;;;8.19;82.40;100602.36;123400;1099;104245;-76
2024/02/26 00:37:12;;;;;;;19.53;6.53;;;;;;;8.18;81.91;100595.33;123463;1099;104384;-76
2024/02/26 00:39:44;;;;;;;19.15;6.20;;;;;;;8.15;82.37;100583.03;123567;1099;104274;-76
2024/02/26 00:42:15;;;;;;;20.45;6.80;;;;;;;8.11;81.68;100599.39;123255;1098;104307;-76
2024/02/26 00:44:47;;;;;;;18.07;5.83;;;;;;;8.07;82.38;100594.83;123377;1098;104508;-76
2024/02/26 00:47:19;;;;;;;19.83;7.00;;;;;;;8.04;82.29;100589.45;123484;1098;104204;-76
2024/02/26 00:49:50;;;;;;;21.60;6.50;;;;;;;8.00;81.58;100587.54;123189;1099;104223;-76
2024/02/26 00:52:21;;;;;;;21.03;6.13;;;;;;;7.96;82.38;100586.48;123449;1099;104272;-76
2024/02/26 00:54:53;;;;;;;27.53;7.00;;;;;;;7.92;81.96;100587.17;123216;1099;104427;-77
2024/02/26 00:57:24;;;;;;;24.17;6.30;;;;;;;7.87;82.51;100588.68;123414;1099;104637;-77
2024/02/26 00:59:56;;;;;;;21.27;6.73;;;;;;;7.81;82.34;100584.05;123488;1098;104312;-77
2024/02/26 01:02:27;;;;;;;22.63;6.87;;;;;;;7.80;82.27;100581.36;123554;1099;104274;-77
2024/02/26 01:04:58;;;;;;;19.90;6.27;;;;;;;7.77;82.59;100581.21;123491;1099;104290;-76
2024/02/26 01:07:33;;;;;;;22.67;6.90;;;;;;;7.73;82.46;100575.84;123466;1099;104307;-76
2024/02/26 01:10:05;;;;;;;19.03;6.80;;;;;;;7.70;82.37;100572.19;123558;1099;104836;-76
2024/02/26 01:12:38;;;;;;;19.98;6.97;;;;;;;7.70;82.40;100567.86;123540;1099;104319;-76
2024/02/26 01:15:10;;;;;;;15.77;6.00;;;;;;;7.71;82.18;100572.27;123502;1099;104271;-76
2024/02/26 01:17:42;;;;;;;24.47;7.17;;;;;;;7.70;82.21;100569.58;123444;1099;104380;-77
2024/02/26 01:20:13;;;;;;;19.47;6.37;;;;;;;7.69;82.16;100573.00;123443;1099;104629;-77
2024/02/26 01:22:45;;;;;;;20.43;6.13;;;;;;;7.69;81.98;100573.00;123460;1099;104377;-77
2024/02/26 01:25:17;;;;;;;18.17;5.90;;;;;;;7.69;83.03;100567.78;123505;1099;104284;-75
2024/02/26 01:27:51;;;;;;;19.93;6.50;;;;;;;7.67;82.47;100574.66;123168;1099;104347;-76
2024/02/26 01:30:22;;;;;;;24.82;6.83;;;;;;;7.64;82.91;100566.67;123338;1099;104251;-76
2024/02/26 01:32:53;;;;;;;20.77;6.77;;;;;;;7.62;82.88;100565.67;123357;1099;104284;-77
2024/02/26 01:35:24;;;;;;;20.27;6.60;;;;;;;7.60;82.58;100567.33;123368;1099;104364;-76
2024/02/26 01:37:55;;;;;;;21.80;6.70;;;;;;;7.60;82.77;100565.61;123496;1099;104386;-76
2024/02/26 01:40:29;;;;;;;24.57;7.07;;;;;;;7.60;82.42;100568.22;123501;1098;104360;-78
2024/02/26 01:43:01;;;;;;;23.80;6.62;;;;;;;7.59;82.16;100568.14;123515;1099;104278;-76
2024/02/26 01:45:32;;;;;;;21.13;6.30;;;;;;;7.59;82.70;100569.06;123314;1099;104319;-75
2024/02/26 01:48:04;;;;;;;22.43;6.87;;;;;;;7.60;82.59;100575.16;123428;1099;104466;-75
2024/02/26 01:50:37;;;;;;;19.87;6.43;;;;;;;7.58;82.63;100577.70;123564;1098;104307;-76
2024/02/26 01:53:10;;;;;;;21.97;6.77;;;;;;;7.54;82.18;100568.83;123648;1099;104242;-76
2024/02/26 01:55:42;;;;;;;26.30;6.95;;;;;;;7.49;82.40;100567.69;123313;1099;104339;-76
2024/02/26 01:58:14;;;;;;;22.33;6.83;;;;;;;7.46;82.20;100562.31;123510;1098;104281;-76
2024/02/26 02:00:46;;;;;;;24.53;6.93;;;;;;;7.44;82.45;100568.30;123557;1099;104706;-76
2024/02/26 02:03:17;;;;;;;24.63;7.13;;;;;;;7.37;82.35;100574.95;123247;1098;104255;-76
2024/02/26 02:05:48;;;;;;;22.63;6.87;;;;;;;7.36;82.31;100578.36;123135;1099;104347;-76
2024/02/26 02:08:20;;;;;;;22.93;7.17;;;;;;;7.36;82.62;100579.25;123266;1099;104347;-76
2024/02/26 02:10:51;;;;;;;23.87;7.10;;;;;;;7.35;82.22;100582.70;123199;1099;104372;-77
2024/02/26 02:13:22;;;;;;;22.93;6.40;;;;;;;7.36;82.43;100589.69;123166;1099;104348;-77
2024/02/26 02:15:54;;;;;;;19.10;6.40;;;;;;;7.38;82.20;100600.21;123210;1099;104277;-77
2024/02/26 02:18:25;;;;;;;27.87;6.40;;;;;;;7.41;82.33;100602.98;123455;1099;104194;-76
2024/02/26 02:20:59;;;;;;;26.07;6.63;;;;;;;7.38;82.44;100594.99;123221;1099;104300;-77
2024/02/26 02:23:30;;;;;;;18.30;6.53;;;;;;;7.33;82.34;100597.37;123084;1099;104242;-77
2024/02/26 02:26:01;;;;;;;20.10;6.23;;;;;;;7.33;82.15;100599.09;123213;1099;104861;-77
2024/02/26 02:28:33;;;;;;;18.93;6.50;;;;;;;7.33;82.42;100602.59;123500;1098;105165;-78
2024/02/26 02:31:05;;;;;;;19.00;6.80;;;;;;;7.34;82.18;100604.39;123499;1098;104344;-75
2024/02/26 02:33:37;;;;;;;19.13;6.43;;;;;;;7.31;81.88;100600.74;123521;1099;104277;-76
2024/02/26 02:36:10;;;;;;;22.50;6.40;;;;;;;7.28;81.82;100596.25;123198;1099;104275;-76
2024/02/26 02:38:51;;;;;;;22.70;6.40;;;;;;;7.23;81.96;100594.22;123204;1099;104345;-77
2024/02/26 02:41:22;;;;;;;22.13;6.47;;;;;;;7.20;82.21;100597.59;123429;1098;104651;-76
2024/02/26 02:43:53;;;;;;;21.73;6.13;;;;;;;7.14;81.92;100590.33;123511;1099;104658;-75
2024/02/26 02:46:24;;;;;;;25.13;6.93;;;;;;;7.08;82.04;100595.23;123498;1098;104322;-76
2024/02/26 02:48:56;;;;;;;21.70;6.90;;;;;;;7.04;82.10;100585.45;123158;1099;104251;-76
2024/02/26 02:51:27;;;;;;;22.90;6.90;;;;;;;7.02;82.16;100587.09;123468;1099;104360;-77
2024/02/26 02:53:58;;;;;;;21.63;7.00;;;;;;;6.99;82.19;100585.21;123418;1098;104370;-77
2024/02/26 02:56:30;;;;;;;21.77;7.27;;;;;;;6.98;82.35;100579.91;123399;1099;104271;-76
2024/02/26 02:59:01;;;;;;;22.43;6.97;;;;;;;6.96;82.29;100584.16;123166;1099;104245;-76
2024/02/26 03:01:32;;;;;;;24.53;7.43;;;;;;;6.96;82.23;100592.87;123155;1099;104392;-76
2024/02/26 03:04:04;;;;;;;26.03;7.40;;;;;;;6.95;82.36;100584.97;123171;1099;104363;-77
2024/02/26 03:06:35;;;;;;;21.07;6.87;;;;;;;6.95;82.31;100591.11;123240;1099;104271;-77
2024/02/26 03:09:06;;;;;;;22.43;7.00;;;;;;;6.95;82.21;100584.97;123412;1099;104255;-76
2024/02/26 03:11:38;;;;;;;22.57;7.60;;;;;;;6.94;82.51;100575.38;123470;1099;104245;-77
2024/02/26 03:14:10;;;;;;;19.63;6.73;;;;;;;6.93;82.29;100577.06;123482;1099;104377;-76
2024/02/26 03:16:41;;;;;;;25.63;7.50;;;;;;;6.91;82.49;100577.83;123277;1098;104274;-76
2024/02/26 03:19:15;;;;;;;20.87;6.80;;;;;;;6.88;82.14;100581.16;123232;1099;104332;-77
2024/02/26 03:21:46;;;;;;;20.97;6.33;;;;;;;6.86;82.19;100581.89;123205;1099;104245;-76
2024/02/26 03:24:17;;;;;;;23.63;7.53;;;;;;;6.82;82.67;100576.55;123257;1099;104272;-76
2024/02/26 03:26:48;;;;;;;25.00;7.37;;;;;;;6.80;82.24;100580.77;123372;1099;104323;-76
2024/02/26 03:29:19;;;;;;;24.03;8.10;;;;;;;6.77;82.61;100580.60;123416;1099;104463;-76
2024/02/26 03:31:51;;;;;;;26.03;7.77;;;;;;;6.77;82.82;100577.99;123486;1099;104352;-77
2024/02/26 03:34:22;;;;;;;21.13;7.43;;;;;;;6.78;83.07;100576.30;123209;1099;104361;-76
2024/02/26 03:36:53;;;;;;;26.43;8.77;;;;;;;6.74;83.15;100575.22;123511;1099;104274;-77
2024/02/26 03:39:24;;;;;;;27.90;8.60;;;;;;;6.74;82.91;100574.34;123464;1099;104688;-77
2024/02/26 03:41:55;;;;;;;25.55;8.40;;;;;;;6.74;82.62;100585.66;123426;1098;104345;-77
2024/02/26 03:44:26;;;;;;;26.53;8.27;;;;;;;6.75;82.77;100584.85;123478;1099;104360;-76
2024/02/26 03:46:57;;;;;;;21.30;7.53;;;;;;;6.76;82.99;100575.30;123478;1099;104428;-76
2024/02/26 03:49:28;;;;;;;27.23;8.53;;;;;;;6.76;82.72;100575.30;123480;1099;104173;-76
2024/02/26 03:52:00;;;;;;;23.17;7.93;;;;;;;6.75;82.93;100576.14;123459;1099;104364;-77
2024/02/26 03:54:31;;;;;;;22.80;7.93;;;;;;;6.74;83.23;100576.95;123417;1099;104346;-77
2024/02/26 03:57:02;;;;;;;26.60;8.60;;;;;;;6.74;82.86;100574.34;123421;1099;104268;-76
2024/02/26 03:59:33;;;;;;;26.73;8.40;;;;;;;6.76;82.99;100577.91;123442;1099;104373;-76
2024/02/26 04:02:07;;;;;;;29.45;8.80;;;;;;;6.76;83.05;100578.83;123490;1099;104226;-76
2024/02/26 04:04:39;;;;;;;30.00;8.30;;;;;;;6.76;83.19;100580.52;123544;1098;104291;-76
2024/02/26 04:07:11;;;;;;;28.03;8.63;;;;;;;6.73;82.98;100583.89;123440;1099;104329;-77
2024/02/26 04:09:43;;;;;;;25.33;7.87;;;;;;;6.74;83.11;100585.66;123559;1099;104408;-76
2024/02/26 04:12:14;;;;;;;28.50;8.67;;;;;;;6.75;82.93;100587.46;123403;1098;104376;-76
2024/02/26 04:14:45;;;;;;;23.63;8.20;;;;;;;6.76;83.17;100584.05;123492;1099;104245;-77
2024/02/26 04:17:16;;;;;;;22.40;7.90;;;;;;;6.76;83.15;100584.05;123605;1099;104292;-77
2024/02/26 04:19:47;;;;;;;26.77;8.87;;;;;;;6.74;83.09;100583.05;123432;1098;107053;-77
2024/02/26 04:22:19;;;;;;;26.97;8.73;;;;;;;6.74;83.29;100584.77;123488;1099;104303;-77
2024/02/26 04:24:50;;;;;;;24.63;7.97;;;;;;;6.74;83.19;100584.77;123165;1099;104248;-76
2024/02/26 04:27:21;;;;;;;23.07;8.20;;;;;;;6.72;83.10;100581.20;123210;1099;104234;-75
2024/02/26 04:29:52;;;;;;;25.40;8.20;;;;;;;6.68;83.17;100587.05;123449;1099;118238;-76
2024/02/26 04:32:27;;;;;;;32.30;9.27;;;;;;;6.65;83.07;100590.39;123396;1099;104401;-77
2024/02/26 04:34:59;;;;;;;23.95;8.80;;;;;;;6.61;83.23;100584.12;123237;1099;104418;-76
2024/02/26 04:37:30;;;;;;;26.27;7.93;;;;;;;6.63;83.09;100592.03;123100;1099;104274;-76
2024/02/26 04:40:04;;;;;;;25.30;9.30;;;;;;;6.58;83.47;100585.69;123103;1099;104271;-76
2024/02/26 04:42:35;;;;;;;23.98;8.35;;;;;;;6.53;83.27;100584.52;123213;1099;104431;-76
2024/02/26 04:45:08;;;;;;;26.57;9.37;;;;;;;6.47;83.23;100591.20;123499;1099;104511;-77
2024/02/26 04:47:39;;;;;;;28.35;9.40;;;;;;;6.44;83.09;100584.95;123225;1099;104340;-76
2024/02/26 04:50:11;;;;;;;22.95;8.40;;;;;;;6.41;83.39;100583.06;123178;1098;104421;-76
2024/02/26 04:52:42;;;;;;;27.87;9.17;;;;;;;6.39;83.17;100587.30;123418;1099;104274;-76
2024/02/26 04:55:13;;;;;;;33.17;10.43;;;;;;;6.37;83.07;100588.91;123562;1099;104422;-76
2024/02/26 04:57:45;;;;;;;26.00;9.05;;;;;;;6.35;83.16;100600.97;123474;1099;104367;-77
2024/02/26 05:00:18;;;;;;;28.57;9.43;;;;;;;6.33;83.36;100593.88;123475;1099;104245;-77
2024/02/26 05:02:49;;;;;;;27.40;9.17;;;;;;;6.29;83.21;100600.64;123279;1099;104277;-75
2024/02/26 05:05:20;;;;;;;31.10;10.75;;;;;;;6.26;83.22;100605.69;123405;1099;104332;-76
2024/02/26 05:07:52;;;;;;;29.25;9.40;;;;;;;6.22;83.31;100609.84;123255;1099;104252;-78
2024/02/26 05:10:23;;;;;;;33.00;9.57;;;;;;;6.19;82.93;100611.39;123399;1099;104523;-77
2024/02/26 05:12:54;;;;;;;28.33;10.07;;;;;;;6.16;83.41;100611.22;123499;1099;104405;-76
2024/02/26 05:15:25;;;;;;;25.07;9.50;;;;;;;6.14;83.04;100618.95;123616;1099;104348;-76
2024/02/26 05:17:57;;;;;;;30.53;9.30;;;;;;;6.11;83.28;100619.67;123616;1099;104255;-76
2024/02/26 05:20:28;;;;;;;26.57;9.90;;;;;;;6.11;83.17;100617.06;123481;1099;105486;-77
2024/02/26 05:22:59;;;;;;;26.27;10.00;;;;;;;6.12;83.98;100617.95;123622;1099;104383;-78
2024/02/26 05:25:31;;;;;;;27.80;9.30;;;;;;;6.11;83.83;100619.67;123800;1099;104360;-77
2024/02/26 05:28:02;;;;;;;30.30;9.80;;;;;;;6.15;83.65;100617.23;123684;1099;104227;-77
2024/02/26 05:30:33;;;;;;;25.00;9.33;;;;;;;6.17;83.85;100618.20;123793;1099;104219;-76
2024/02/26 05:33:05;;;;;;;26.50;9.43;;;;;;;6.19;83.75;100632.23;123982;1099;104376;-77
2024/02/26 05:35:36;;;;;;;29.93;9.87;;;;;;;6.21;83.97;100630.60;123960;1099;104249;-77
2024/02/26 05:38:07;;;;;;;26.90;10.27;;;;;;;6.22;84.08;100624.59;123733;1099;104354;-76
2024/02/26 05:40:39;;;;;;;32.07;10.57;;;;;;;6.27;84.37;100628.34;123617;1099;105447;-76
2024/02/26 05:43:10;;;;;;;30.17;9.73;;;;;;;6.30;83.85;100623.30;123801;1099;104676;-77
2024/02/26 05:45:41;;;;;;;31.37;10.20;;;;;;;6.37;83.98;100632.34;123767;1099;104355;-77
2024/02/26 05:48:12;;;;;;;29.33;9.90;;;;;;;6.40;84.04;100624.69;123906;1099;104232;-74
2024/02/26 05:50:44;;;;;;;32.57;10.57;;;;;;;6.42;83.84;100623.96;123843;1099;104281;-76
2024/02/26 05:53:15;;;;;;;27.27;9.57;;;;;;;6.45;84.17;100618.92;124011;1099;104254;-76
2024/02/26 05:55:47;;;;;;;28.00;10.53;;;;;;;6.48;84.04;100623.37;123958;1099;104283;-76
2024/02/26 05:58:18;;;;;;;29.53;9.87;;;;;;;6.49;83.96;100625.19;123631;1099;104361;-76
2024/02/26 06:00:49;;;;;;;30.97;11.07;;;;;;;6.48;84.18;100619.08;123826;1099;104331;-76
2024/02/26 06:03:20;;;;;;;27.90;10.73;;;;;;;6.50;84.02;100621.77;123998;1099;104354;-76
2024/02/26 06:05:52;;;;;;;28.45;9.80;;;;;;;6.54;84.37;100622.83;124023;1099;104255;-76
2024/02/26 06:08:23;;;;;;;28.67;11.23;;;;;;;6.55;84.19;100619.41;124296;1099;104405;-76
2024/02/26 06:10:54;;;;;;;31.00;11.00;;;;;;;6.58;84.03;100617.86;124023;1098;104284;-77
2024/02/26 06:13:25;;;;;;;28.90;10.13;;;;;;;6.63;84.24;100618.10;124040;1099;104481;-77
2024/02/26 06:15:57;;;;;;;24.90;10.03;;;;;;;6.66;84.38;100621.77;123917;1099;104252;-77
2024/02/26 06:18:28;;;;;;;32.40;10.93;;;;;;;6.71;84.32;100624.61;124066;1099;104390;-77
2024/02/26 06:20:59;;;;;;;27.13;10.23;;;;;;;6.78;84.22;100629.35;124200;1099;104230;-77
2024/02/26 06:23:30;;;;;;;27.27;10.57;;;;;;;6.82;84.07;100628.71;124172;1099;104353;-76
2024/02/26 06:26:01;;;;;;;29.90;11.33;;;;;;;6.84;84.34;100632.28;124154;1099;104376;-76
2024/02/26 06:28:33;;;;;;;29.73;10.60;;;;;;;6.89;84.54;100623.78;124152;1099;104200;-76
2024/02/26 06:31:05;;;;;;;31.43;11.33;;;;;;;6.94;84.29;100622.34;124050;1099;104364;-75
2024/02/26 06:33:36;;;;;;;30.07;10.67;;;;;;;7.01;84.58;100620.13;124374;1099;104243;-77
2024/02/26 06:36:08;;;;;;;31.60;11.83;;;;;;;7.12;84.63;100619.77;124069;1099;104233;-77
2024/02/26 06:38:39;;;;;;;28.70;11.33;;;;;;;7.29;84.57;100624.16;124245;1099;104176;-77
2024/02/26 06:41:11;;;;;;;30.37;10.83;;;;;;;7.42;84.50;100636.11;124347;1099;104226;-75
2024/02/26 06:43:42;;;;;;;32.67;11.03;;;;;;;7.56;84.13;100632.47;124383;1098;104373;-76
2024/02/26 06:46:14;;;;;;;32.83;10.27;;;;;;;7.71;83.94;100634.03;124650;1099;102566;-76
2024/02/26 06:48:48;;;;;;;31.20;10.67;;;;;;;7.88;84.60;100627.95;124611;1099;104300;-77
2024/02/26 06:51:20;;;;;;;28.17;9.27;;;;;;;7.99;84.44;100630.16;123976;1099;104300;-76
2024/02/26 06:53:52;;;;;;;31.03;10.13;;;;;;;8.06;84.20;100625.30;124144;1099;106000;-76
2024/02/26 06:56:23;;;;;;;28.90;10.37;;;;;;;8.07;83.22;100624.49;124484;1099;104185;-77
2024/02/26 06:58:54;;;;;;;26.37;10.40;;;;;;;8.14;83.78;100624.78;124231;1099;104283;-77
2024/02/26 07:01:26;;;;;;;25.90;10.37;;;;;;;8.20;83.98;100625.08;124508;1099;104288;-76
2024/02/26 07:03:57;;;;;;;23.57;9.97;;;;;;;8.27;83.63;100617.59;124193;1099;104743;-75
2024/02/26 07:06:29;;;;;;;27.97;9.53;;;;;;;8.35;83.82;100623.19;124515;1099;104329;-77
2024/02/26 07:09:00;;;;;;;29.23;11.43;;;;;;;8.40;83.57;100626.02;124640;1103;104249;-77
2024/02/26 07:11:32;;;;;;;25.30;10.00;;;;;;;8.51;83.74;100630.05;124793;1099;104191;-78
2024/02/26 07:14:03;;;;;;;27.00;10.23;;;;;;;8.60;83.19;100630.47;124794;1099;104251;-78
2024/02/26 07:16:34;;;;;;;29.03;10.20;;;;;;;8.68;83.13;100622.05;124923;1099;104255;-76
2024/02/26 07:19:06;;;;;;;29.70;9.85;;;;;;;8.76;83.16;100631.16;125381;1099;104178;-78
2024/02/26 07:21:37;;;;;;;27.30;9.63;;;;;;;8.89;83.33;100622.12;124712;1099;103148;-76
2024/02/26 07:24:08;;;;;;;29.30;9.93;;;;;;;8.97;83.12;100625.97;124817;1099;104255;-77
2024/02/26 07:26:42;;;;;;;23.63;8.93;;;;;;;9.04;82.07;100624.51;124804;1099;103249;-77
2024/02/26 07:29:14;;;;;;;25.23;8.80;;;;;;;9.09;82.58;100623.90;124611;1099;104060;-76
2024/02/26 07:31:45;;;;;;;25.90;9.30;;;;;;;9.17;82.33;100619.87;124399;1099;102525;-76
2024/02/26 07:34:16;;;;;;;26.87;9.23;;;;;;;9.20;81.86;100616.51;124331;1099;104255;-77
2024/02/26 07:36:48;;;;;;;23.47;8.43;;;;;;;9.23;81.05;100615.76;124102;1099;104191;-76
2024/02/26 07:39:20;;;;;;;24.93;9.30;;;;;;;9.21;80.99;100618.31;124179;1102;104172;-76
2024/02/26 07:41:52;;;;;;;24.00;9.17;;;;;;;9.26;81.44;100627.25;124330;1099;104299;-76
2024/02/26 07:44:23;;;;;;;21.13;7.80;;;;;;;9.33;81.59;100623.16;124509;1099;104242;-76
2024/02/26 07:46:55;;;;;;;24.43;9.30;;;;;;;9.41;81.76;100620.86;124477;1099;104249;-76
2024/02/26 07:49:27;;;;;;;23.83;8.97;;;;;;;9.52;81.82;100615.27;124713;1098;104162;-76
2024/02/26 07:51:59;;;;;;;26.23;9.23;;;;;;;9.63;80.53;100623.56;124928;1099;104182;-78
2024/02/26 07:54:33;;;;;;;22.27;9.17;;;;;;;9.71;80.73;100619.53;124370;1099;104283;-76
2024/02/26 07:57:05;;;;;;;25.73;8.57;;;;;;;9.80;80.63;100631.20;124645;1099;103561;-76
2024/02/26 07:59:37;;;;;;;27.57;9.00;;;;;;;9.89;80.38;100615.86;124678;1099;104274;-76
2024/02/26 08:02:09;;;;;;;24.53;8.80;;;;;;;10.01;80.09;100623.33;124502;1099;104153;-75
2024/02/26 08:04:43;;;;;;;23.77;9.00;;;;;;;10.12;80.86;100622.02;124616;1099;104239;-78
2024/02/26 08:07:13;;;;;;;;;;;;;;;10.22;79.82;100621.56;124794;1099;104236;-77
2024/02/26 08:09:46;;;;;;;27.00;8.77;;;;;;;10.32;80.65;100624.55;124602;1099;104229;-75
2024/02/26 08:12:17;;;;;;;24.65;9.03;;;;;;;10.38;79.18;100628.32;125340;1099;102748;-78
2024/02/26 08:14:49;;;;;;;27.27;10.00;;;;;;;10.44;78.90;100622.42;124446;1099;104293;-76
2024/02/26 08:17:20;;;;;;;23.57;9.37;;;;;;;10.49;78.79;100618.23;124422;1099;104235;-75
2024/02/26 08:19:51;;;;;;;23.77;8.60;;;;;;;10.47;77.54;100614.67;124237;1097;104242;-75
2024/02/26 08:22:23;;;;;;;24.47;9.30;;;;;;;10.43;76.94;100608.39;124170;1099;104258;-74
2024/02/26 08:24:54;;;;;;;27.43;9.07;;;;;;;10.49;77.41;100612.11;124345;1099;104172;-75
2024/02/26 08:27:25;;;;;;;23.87;9.23;;;;;;;10.60;77.54;100608.14;124368;1099;104252;-75
2024/02/26 08:29:57;;;;;;;21.43;8.70;;;;;;;10.71;77.95;100611.17;124607;1099;104358;-76
2024/02/26 08:32:28;;;;;;;26.63;8.87;;;;;;;10.88;78.46;100610.05;124499;1099;104195;-75
2024/02/26 08:34:59;;;;;;;26.57;9.40;;;;;;;10.99;77.80;100613.06;124069;1099;104239;-76
2024/02/26 08:37:31;;;;;;;23.63;8.90;;;;;;;11.10;78.09;100618.70;124279;1099;104131;-78
2024/02/26 08:40:03;;;;;;;28.90;8.63;;;;;;;11.21;77.73;100611.20;124203;1099;104215;-75
2024/02/26 08:42:35;;;;;;;24.67;7.55;;;;;;;11.32;77.65;100607.20;124158;1099;102153;-76
2024/02/26 08:45:11;;;;;;;20.30;6.33;;;;;;;11.47;77.04;100606.84;124205;1099;107039;-78
2024/02/26 08:47:47;;;;;;;20.33;8.13;;;;;;;11.62;77.23;100606.44;124576;1099;101950;-75
2024/02/26 08:50:19;;;;;;;19.60;6.73;;;;;;;11.75;76.64;100608.64;124504;1099;104307;-75
2024/02/26 08:52:53;;;;;;;17.70;5.65;;;;;;;11.86;75.45;100601.98;124401;1099;102143;-75
2024/02/26 08:55:24;;;;;;;18.75;6.10;;;;;;;11.98;75.95;100598.90;124713;1099;117844;-75
2024/02/26 08:57:56;;;;;;;15.10;5.77;;;;;;;12.11;76.04;100587.02;124503;1099;104345;-75
2024/02/26 09:00:29;;;;;;;16.87;5.60;;;;;;;12.20;75.08;100582.03;124525;1099;104259;-75
2024/02/26 09:03:00;;;;;;;14.25;5.50;;;;;;;12.33;71.09;100585.92;124673;1099;104233;-74
2024/02/26 09:05:32;;;;;;;16.83;5.80;;;;;;;12.43;74.70;100583.56;124371;1099;102322;-76
2024/02/26 09:08:03;;;;;;;20.60;6.53;;;;;;;12.58;74.86;100579.63;124429;1099;103283;-75
2024/02/26 09:10:35;;;;;;;20.07;5.80;;;;;;;12.70;74.07;100578.19;124390;1099;103702;-76
2024/02/26 09:13:07;;;;;;;14.03;5.47;;;;;;;12.85;74.47;100589.15;124286;1099;104233;-75
2024/02/26 09:15:38;;;;;;;19.23;6.57;;;;;;;12.94;73.33;100581.50;124642;1099;111651;-75
2024/02/26 09:18:09;;;;;;;15.53;6.30;;;;;;;13.05;73.43;100578.28;124570;1098;104290;-76
2024/02/26 09:20:41;;;;;;;21.23;6.47;;;;;;;13.12;71.34;100580.24;124728;1098;104179;-75
2024/02/26 09:23:13;;;;;;;18.97;6.17;;;;;;;13.17;70.79;100581.25;124799;1099;104374;-77
2024/02/26 09:25:44;;;;;;;15.63;5.40;;;;;;;13.22;71.27;100578.73;124317;1099;104328;-75
2024/02/26 09:28:17;;;;;;;19.00;6.80;;;;;;;13.36;71.72;100581.76;124280;1102;104393;-76
2024/02/26 09:30:50;;;;;;;15.60;5.37;;;;;;;13.47;66.13;100577.64;124705;1099;102933;-76
2024/02/26 09:33:21;;;;;;;18.73;6.27;;;;;;;13.53;69.97;100566.37;124351;1099;103195;-78
2024/02/26 09:35:53;;;;;;;17.67;6.10;;;;;;;13.57;69.19;100574.40;124579;1099;102131;-75
2024/02/26 09:38:24;;;;;;;16.47;5.40;;;;;;;13.63;68.88;100571.91;124167;1099;104302;-75
2024/02/26 09:40:56;;;;;;;14.20;5.23;;;;;;;13.72;67.84;100575.61;124577;1099;104217;-76
2024/02/26 09:43:35;;;;;;;19.00;6.23;;;;;;;13.82;67.11;100556.50;124634;1099;104192;-75
2024/02/26 09:46:07;;;;;;;16.90;6.50;;;;;;;13.94;66.65;100563.81;124369;1099;104429;-74
2024/02/26 09:48:39;;;;;;;19.80;6.47;;;;;;;14.07;68.53;100567.62;124333;1098;103334;-75
2024/02/26 09:51:18;;;;;;;23.03;5.10;;;;;;;14.19;67.10;100567.89;124354;1102;104255;-78
2024/02/26 09:53:52;;;;;;;13.40;4.63;;;;;;;14.25;66.56;100557.47;124549;1099;104248;-75
2024/02/26 09:56:26;;;;;;;11.85;4.97;;;;;;;14.36;66.66;100555.94;124832;1099;104219;-78
2024/02/26 09:59:00;;;;;;;17.60;6.12;;;;;;;14.38;66.19;100548.97;124895;1099;104233;-77
2024/02/26 10:01:33;;;;;;;;;;;;;;;14.38;64.63;100542.77;125100;1099;104255;-78
2024/02/26 10:04:05;;;;;;;14.20;5.10;;;;;;;14.49;65.75;100538.63;124838;1099;104316;-77
2024/02/26 10:06:44;;;;;;;11.17;4.20;;;;;;;14.60;65.74;100537.94;124515;1099;104222;-76
2024/02/26 10:09:16;;;;;;;11.87;4.00;;;;;;;14.62;62.17;100534.51;124445;1099;104194;-75
2024/02/26 10:11:59;;;;;;;7.80;3.87;;;;;;;14.70;62.92;100534.66;124561;1099;104361;-75
2024/02/26 10:14:30;;;;;;;11.37;4.10;;;;;;;14.65;60.63;100531.05;124261;1099;104399;-75
2024/02/26 10:17:08;;;;;;;8.23;3.93;;;;;;;14.69;60.91;100528.50;124682;1099;104318;-77
2024/02/26 10:19:40;;;;;;;8.60;3.70;;;;;;;14.70;61.45;100538.19;124832;1099;104262;-77
2024/02/26 10:22:11;;;;;;;12.00;4.37;;;;;;;14.74;60.23;100531.23;124780;1099;104293;-77
2024/02/26 10:24:42;;;;;;;11.33;4.03;;;;;;;14.76;60.03;100525.94;124516;1099;104271;-76
2024/02/26 10:27:14;;;;;;;9.80;4.37;;;;;;;14.85;60.25;100527.03;124668;1099;103063;-75
2024/02/26 10:29:47;;;;;;;12.97;4.90;;;;;;;14.94;60.36;100528.05;124662;1099;103842;-76
2024/02/26 10:32:24;;;;;;;10.00;4.20;;;;;;;15.02;59.46;100527.34;124713;1099;102239;-77
2024/02/26 10:35:03;;;;;;;12.57;4.43;;;;;;;15.04;57.22;100530.89;124461;1099;104390;-74
2024/02/26 10:37:34;;;;;;;9.70;4.13;;;;;;;15.07;58.98;100519.50;124661;1099;120207;-75
2024/02/26 10:40:23;;;;;;;8.23;3.67;;;;;;;15.10;58.92;100523.08;124619;1099;103646;-76
2024/02/26 10:43:04;;;;;;;9.00;3.60;;;;;;;15.15;57.78;100524.92;126259;1099;101941;-76
2024/02/26 10:45:42;;;;;;;12.17;3.70;;;;;;;15.20;57.61;100521.47;126822;1098;102072;-74
2024/02/26 10:48:20;;;;;;;14.73;4.13;;;;;;;15.26;57.46;100516.29;126432;1098;102473;-74
2024/02/26 10:51:16;;;;;;;8.20;3.63;;;;;;;15.34;55.69;100510.25;124708;1099;104355;-74
2024/02/26 10:53:54;;;;;;;8.83;3.53;;;;;;;15.28;55.97;100514.55;126041;1100;102676;-76
2024/02/26 10:56:30;;;;;;;6.30;3.40;;;;;;;15.24;53.95;100506.58;126595;1098;102993;-76
2024/02/26 10:59:02;;;;;;;7.83;3.83;;;;;;;15.22;52.55;100510.92;126454;1099;102569;-77
2024/02/26 11:01:38;;;;;;;12.37;4.03;;;;;;;15.28;54.15;100506.62;126845;1099;102321;-76
2024/02/26 11:04:12;;;;;;;10.03;4.07;;;;;;;15.39;52.27;100500.63;125169;1099;104375;-76
2024/02/26 11:06:44;;;;;;;9.50;3.30;;;;;;;15.48;53.55;100498.13;124879;1099;104380;-75
2024/02/26 11:09:22;;;;;;;7.15;3.15;;;;;;;15.63;54.61;100502.78;124671;1099;104175;-74
2024/02/26 11:11:54;;;;;;;8.10;3.80;;;;;;;15.81;54.08;100499.53;124710;1098;104240;-74
2024/02/26 11:14:26;;;;;;;8.03;4.23;;;;;;;15.89;52.10;100489.94;124380;1102;104238;-74
2024/02/26 11:17:01;;;;;;;10.90;3.70;;;;;;;15.95;51.74;100490.02;124568;1099;103055;-74
2024/02/26 11:19:36;;;;;;;9.60;3.60;;;;;;;15.98;51.01;100497.13;125010;1099;104986;-75
2024/02/26 11:22:08;;;;;;;9.37;3.63;;;;;;;16.01;50.02;100488.34;125146;1098;104175;-74
2024/02/26 11:24:42;;;;;;;8.67;4.10;;;;;;;16.06;51.60;100490.17;124996;1099;104169;-78
2024/02/26 11:27:15;;;;;;;11.12;3.62;;;;;;;16.10;51.83;100481.41;124699;1099;103052;-74
2024/02/26 11:30:01;;;;;;;8.50;3.87;;;;;;;16.18;52.14;100487.68;124618;1098;104267;-75